sim
Sign-in with your pilot id or email,
or register
Callsign
Passwort

Schedule Details

Flight Number: EWG5708 (3)
Departure: Munich Airport (EDDM) at 12:55
Arrival: Pristina Adem Jashari International Airport (BKPR) at 14:50
Route: Eurowings Passenger Schedule. Enter filed route here before submitting Pirep.

Weather Information
Getting current METAR information for EDDM 240750Z 24006KT 9999 FEW031 16/14 Q1010 NOSIG
Getting current METAR information for BKPR 240800Z VRB01KT 9999 FEW015 SCT080 17/13 Q1015 NOSIG

Schedule Frequency

Route Map